Time;durP1;ratioP1;P1;durP2;ratioP2;P2;SDS_P1;SDS_P2;PMS_P1;PMS_P2;Temp;Humidity;BMP_temperature;BMP_pressure;BME280_temperature;BME280_humidity;BME280_pressure;Samples;Min_cycle;Max_cycle;Signal;HPM_P1;HPM_P2
2023/05/22 00:00:47;;;;;;;13.27;10.93;;;;;;;;;;4985511;28;20125;-59
2023/05/22 00:03:12;;;;;;;17.95;12.07;;;;;;;;;;4982740;28;20042;-60
2023/05/22 00:05:39;;;;;;;12.68;11.23;;;;;;;;;;4983972;28;20038;-59
2023/05/22 00:08:10;;;;;;;14.25;11.50;;;;;;;;;;4982215;28;20893;-60
2023/05/22 00:10:36;;;;;;;15.07;11.80;;;;;;;;;;4986402;28;20092;-60
2023/05/22 00:13:01;;;;;;;13.63;12.18;;;;;;;;;;4981665;28;20046;-59
2023/05/22 00:15:27;;;;;;;14.80;11.23;;;;;;;;;;4982699;28;20026;-59
2023/05/22 00:17:52;;;;;;;16.95;12.45;;;;;;;;;;4980546;28;20121;-59
2023/05/22 00:20:18;;;;;;;16.83;11.32;;;;;;;;;;4979729;28;20074;-57
2023/05/22 00:22:43;;;;;;;13.65;11.75;;;;;;;;;;4980135;28;20701;-59
2023/05/22 00:25:10;;;;;;;14.98;11.50;;;;;;;;;;4980316;28;20107;-59
2023/05/22 00:27:35;;;;;;;13.82;10.75;;;;;;;;;;4984067;28;20046;-60
2023/05/22 00:30:00;;;;;;;13.00;10.73;;;;;;;;;;4983660;28;20038;-59
2023/05/22 00:32:26;;;;;;;14.23;11.75;;;;;;;;;;4984348;28;20058;-59
2023/05/22 00:34:52;;;;;;;14.98;11.35;;;;;;;;;;4982204;28;20137;-59
2023/05/22 00:37:21;;;;;;;13.70;11.45;;;;;;;;;;4979138;28;20034;-58
2023/05/22 00:39:47;;;;;;;16.00;12.52;;;;;;;;;;4995443;28;20852;-59
2023/05/22 00:42:13;;;;;;;13.70;11.10;;;;;;;;;;4986775;28;20057;-58
2023/05/22 00:44:38;;;;;;;16.05;10.45;;;;;;;;;;4980930;28;20395;-59
2023/05/22 00:47:04;;;;;;;16.80;11.35;;;;;;;;;;4987220;28;20042;-59
2023/05/22 00:49:29;;;;;;;15.65;11.88;;;;;;;;;;4977764;28;20458;-60
2023/05/22 00:51:55;;;;;;;12.98;10.68;;;;;;;;;;4981722;28;20039;-59
2023/05/22 00:54:21;;;;;;;17.48;12.07;;;;;;;;;;4980240;28;20038;-59
2023/05/22 00:56:47;;;;;;;13.07;11.52;;;;;;;;;;4982220;28;20386;-59
2023/05/22 00:59:13;;;;;;;15.13;13.18;;;;;;;;;;4979953;28;20120;-59
2023/05/22 01:01:40;;;;;;;13.98;11.13;;;;;;;;;;4981636;28;20027;-59
2023/05/22 01:04:09;;;;;;;13.88;11.52;;;;;;;;;;4997180;28;20447;-59
2023/05/22 01:06:34;;;;;;;15.77;12.80;;;;;;;;;;4997835;28;20038;-58
2023/05/22 01:09:00;;;;;;;14.45;11.20;;;;;;;;;;4983338;28;20038;-60
2023/05/22 01:11:43;;;;;;;13.55;11.23;;;;;;;;;;4979717;28;20065;-59
2023/05/22 01:14:32;;;;;;;13.77;11.07;;;;;;;;;;4981993;28;20036;-59
2023/05/22 01:17:27;;;;;;;13.30;10.93;;;;;;;;;;4982102;28;20038;-60
2023/05/22 01:20:04;;;;;;;13.45;10.88;;;;;;;;;;4975519;28;20047;-60
2023/05/22 01:22:48;;;;;;;14.00;10.45;;;;;;;;;;4979844;28;20436;-59
2023/05/22 01:25:25;;;;;;;14.18;10.50;;;;;;;;;;4979289;28;20613;-58
2023/05/22 01:27:53;;;;;;;12.82;10.60;;;;;;;;;;4978593;28;20596;-59
2023/05/22 01:30:39;;;;;;;14.30;10.82;;;;;;;;;;4980494;28;20533;-59
2023/05/22 01:33:06;;;;;;;13.85;11.05;;;;;;;;;;4971262;28;20092;-59
2023/05/22 01:35:32;;;;;;;13.95;10.88;;;;;;;;;;4994455;28;20948;-59
2023/05/22 01:37:58;;;;;;;15.43;12.30;;;;;;;;;;4978846;28;20054;-60
2023/05/22 01:40:24;;;;;;;13.48;10.70;;;;;;;;;;4979507;28;20559;-59
2023/05/22 01:42:50;;;;;;;12.65;10.52;;;;;;;;;;4980451;28;20066;-60
2023/05/22 01:45:16;;;;;;;14.90;11.25;;;;;;;;;;4982548;28;20167;-59
2023/05/22 01:47:43;;;;;;;14.38;11.40;;;;;;;;;;4984754;28;20134;-59
2023/05/22 01:50:09;;;;;;;12.68;11.23;;;;;;;;;;4983385;28;20386;-59
2023/05/22 01:52:38;;;;;;;13.93;10.93;;;;;;;;;;4980142;28;20034;-59
2023/05/22 01:55:19;;;;;;;15.05;11.38;;;;;;;;;;4995912;28;20039;-59
2023/05/22 01:57:50;;;;;;;15.18;13.10;;;;;;;;;;4997299;28;20038;-59
2023/05/22 02:00:17;;;;;;;14.23;10.75;;;;;;;;;;4979649;28;20030;-59
2023/05/22 02:02:46;;;;;;;13.52;11.77;;;;;;;;;;4979504;28;20050;-59
2023/05/22 02:05:12;;;;;;;13.02;11.32;;;;;;;;;;4979466;28;20080;-60
2023/05/22 02:07:39;;;;;;;14.07;11.82;;;;;;;;;;4972816;28;20054;-59
2023/05/22 02:10:06;;;;;;;13.45;11.20;;;;;;;;;;4989170;28;20113;-61
2023/05/22 02:12:31;;;;;;;14.73;11.98;;;;;;;;;;4977595;28;20506;-60
2023/05/22 02:14:57;;;;;;;13.02;11.15;;;;;;;;;;4998732;28;20035;-60
2023/05/22 02:17:23;;;;;;;15.43;11.73;;;;;;;;;;4990116;28;20303;-60
2023/05/22 02:19:48;;;;;;;16.73;12.75;;;;;;;;;;4989697;28;20062;-60
2023/05/22 02:22:14;;;;;;;19.48;13.40;;;;;;;;;;4985834;28;20060;-60
2023/05/22 02:24:41;;;;;;;15.55;12.07;;;;;;;;;;4984375;28;20039;-60
2023/05/22 02:27:08;;;;;;;19.92;12.57;;;;;;;;;;4981527;28;20056;-60
2023/05/22 02:29:33;;;;;;;15.75;11.73;;;;;;;;;;4996203;28;20457;-61
2023/05/22 02:32:00;;;;;;;13.85;11.98;;;;;;;;;;4989533;28;20070;-60
2023/05/22 02:34:26;;;;;;;13.93;11.35;;;;;;;;;;4990536;28;20037;-61
2023/05/22 02:36:52;;;;;;;16.52;12.73;;;;;;;;;;4985173;28;20030;-60
2023/05/22 02:39:18;;;;;;;16.88;13.20;;;;;;;;;;4981185;28;20034;-60
2023/05/22 02:41:44;;;;;;;14.95;11.30;;;;;;;;;;4981439;28;20112;-60
2023/05/22 02:44:09;;;;;;;15.65;12.82;;;;;;;;;;4983014;28;20052;-59
2023/05/22 02:46:35;;;;;;;13.65;12.18;;;;;;;;;;4996149;28;20030;-61
2023/05/22 02:49:01;;;;;;;14.07;12.52;;;;;;;;;;4982855;28;20057;-59
2023/05/22 02:51:27;;;;;;;16.90;13.05;;;;;;;;;;4985680;28;20486;-60
2023/05/22 02:53:52;;;;;;;14.50;12.10;;;;;;;;;;4980525;28;20135;-60
2023/05/22 02:56:19;;;;;;;15.90;11.55;;;;;;;;;;4980573;28;20065;-58
2023/05/22 02:58:45;;;;;;;13.55;12.15;;;;;;;;;;4981758;28;20209;-61
2023/05/22 03:01:10;;;;;;;16.90;12.75;;;;;;;;;;4987091;28;20401;-60
2023/05/22 03:03:36;;;;;;;14.88;12.50;;;;;;;;;;4982990;28;20173;-60
2023/05/22 03:06:02;;;;;;;13.80;12.00;;;;;;;;;;4971013;28;20374;-60
2023/05/22 03:08:30;;;;;;;12.93;11.20;;;;;;;;;;4993772;28;20070;-61
2023/05/22 03:10:56;;;;;;;15.57;12.00;;;;;;;;;;4977055;28;20061;-61
2023/05/22 03:13:22;;;;;;;13.57;10.82;;;;;;;;;;4983219;28;20049;-60
2023/05/22 03:15:47;;;;;;;15.07;12.80;;;;;;;;;;4980212;28;20512;-61
2023/05/22 03:18:15;;;;;;;13.27;11.38;;;;;;;;;;4985051;28;20566;-61
2023/05/22 03:20:41;;;;;;;17.25;13.35;;;;;;;;;;4993327;28;20039;-61
2023/05/22 03:23:06;;;;;;;15.48;11.85;;;;;;;;;;4997591;28;20038;-61
2023/05/22 03:25:32;;;;;;;14.02;12.18;;;;;;;;;;4981528;28;20508;-61
2023/05/22 03:27:57;;;;;;;15.23;11.82;;;;;;;;;;4978352;28;20181;-61
2023/05/22 03:30:25;;;;;;;16.02;11.98;;;;;;;;;;4976288;28;20056;-61
2023/05/22 03:33:05;;;;;;;18.38;13.15;;;;;;;;;;4998446;28;20136;-59
2023/05/22 03:35:35;;;;;;;15.13;12.90;;;;;;;;;;4980268;28;20591;-59
2023/05/22 03:38:00;;;;;;;13.85;11.70;;;;;;;;;;4983562;28;20049;-60
2023/05/22 03:40:26;;;;;;;15.43;11.32;;;;;;;;;;4980689;28;20485;-59
2023/05/22 03:42:51;;;;;;;17.00;12.10;;;;;;;;;;4980017;28;20042;-62
2023/05/22 03:45:17;;;;;;;12.38;11.10;;;;;;;;;;4986178;28;20564;-62
2023/05/22 03:47:42;;;;;;;14.63;12.63;;;;;;;;;;4982708;28;20421;-63
2023/05/22 03:50:08;;;;;;;15.25;12.32;;;;;;;;;;4982716;28;20599;-63
2023/05/22 03:52:34;;;;;;;18.50;12.95;;;;;;;;;;4981392;28;20035;-64
2023/05/22 03:55:00;;;;;;;13.40;12.00;;;;;;;;;;4981745;28;20552;-63
2023/05/22 03:57:26;;;;;;;15.60;11.60;;;;;;;;;;4997919;28;20491;-64
2023/05/22 03:59:51;;;;;;;15.57;11.40;;;;;;;;;;4996142;28;20040;-65
2023/05/22 04:02:17;;;;;;;19.38;13.00;;;;;;;;;;4981502;28;20196;-65
2023/05/22 04:04:44;;;;;;;15.88;12.40;;;;;;;;;;4978055;28;20034;-65
2023/05/22 04:07:12;;;;;;;13.13;11.70;;;;;;;;;;4978538;28;20053;-65
2023/05/22 04:09:37;;;;;;;14.13;11.88;;;;;;;;;;4972384;28;20113;-65
2023/05/22 04:12:03;;;;;;;13.77;11.07;;;;;;;;;;4983186;28;20537;-64
2023/05/22 04:14:28;;;;;;;14.15;12.57;;;;;;;;;;4985472;28;20050;-64
2023/05/22 04:16:54;;;;;;;14.27;11.40;;;;;;;;;;4968498;28;20592;-65
2023/05/22 04:19:19;;;;;;;12.25;10.98;;;;;;;;;;4978252;28;20532;-67
2023/05/22 04:21:46;;;;;;;14.05;10.80;;;;;;;;;;4981428;28;20493;-61
2023/05/22 04:24:11;;;;;;;13.98;10.43;;;;;;;;;;4981940;28;20093;-61
2023/05/22 04:26:38;;;;;;;12.35;10.27;;;;;;;;;;4983327;28;20478;-60
2023/05/22 04:29:05;;;;;;;13.43;11.23;;;;;;;;;;4979387;28;20118;-66
2023/05/22 04:31:31;;;;;;;15.27;12.10;;;;;;;;;;4979825;28;20062;-66
2023/05/22 04:33:58;;;;;;;13.50;11.57;;;;;;;;;;4982242;28;20089;-65
2023/05/22 04:36:27;;;;;;;13.68;10.55;;;;;;;;;;4982513;28;20609;-63
2023/05/22 04:38:53;;;;;;;12.82;11.50;;;;;;;;;;4981976;28;20045;-62
2023/05/22 04:41:21;;;;;;;12.05;10.88;;;;;;;;;;4981649;28;20368;-62
2023/05/22 04:43:49;;;;;;;11.48;10.40;;;;;;;;;;4983612;28;20046;-61
2023/05/22 04:46:17;;;;;;;13.80;10.65;;;;;;;;;;4974932;28;20494;-62
2023/05/22 04:48:43;;;;;;;12.80;11.07;;;;;;;;;;4978344;28;20034;-62
2023/05/22 04:51:08;;;;;;;11.57;10.45;;;;;;;;;;4978409;28;20037;-62
2023/05/22 04:53:34;;;;;;;12.23;10.93;;;;;;;;;;4982840;28;20162;-62
2023/05/22 04:56:01;;;;;;;13.95;10.85;;;;;;;;;;4992634;28;20656;-60
2023/05/22 04:58:28;;;;;;;12.07;10.35;;;;;;;;;;4982520;28;20502;-63
2023/05/22 05:00:56;;;;;;;16.33;11.25;;;;;;;;;;4986971;28;20042;-61
2023/05/22 05:03:22;;;;;;;14.18;11.48;;;;;;;;;;4980277;28;20042;-63
2023/05/22 05:05:47;;;;;;;13.25;11.10;;;;;;;;;;4992901;28;20112;-67
2023/05/22 05:08:13;;;;;;;11.05;9.98;;;;;;;;;;4984017;28;20549;-62
2023/05/22 05:10:39;;;;;;;13.52;12.20;;;;;;;;;;4983273;28;20034;-60
2023/05/22 05:13:04;;;;;;;11.40;10.20;;;;;;;;;;4964690;28;20042;-60
2023/05/22 05:15:34;;;;;;;10.85;9.75;;;;;;;;;;4979364;28;20516;-59
2023/05/22 05:18:01;;;;;;;12.73;11.38;;;;;;;;;;4982048;28;20073;-61
2023/05/22 05:20:26;;;;;;;13.48;12.07;;;;;;;;;;4984521;28;20042;-60
2023/05/22 05:22:52;;;;;;;12.70;11.48;;;;;;;;;;4984614;28;20100;-60
2023/05/22 05:25:19;;;;;;;12.68;11.38;;;;;;;;;;4982608;28;20145;-60
2023/05/22 05:27:44;;;;;;;13.38;11.98;;;;;;;;;;4978043;28;20044;-60
2023/05/22 05:30:10;;;;;;;11.95;10.75;;;;;;;;;;4977996;28;20108;-60
2023/05/22 05:32:51;;;;;;;11.80;10.57;;;;;;;;;;4985091;28;20042;-61
2023/05/22 05:35:23;;;;;;;11.75;10.55;;;;;;;;;;4997646;28;20107;-61
2023/05/22 05:38:00;;;;;;;13.25;11.85;;;;;;;;;;4964706;28;20398;-61
2023/05/22 05:40:30;;;;;;;12.35;11.15;;;;;;;;;;4992744;28;20050;-60
2023/05/22 05:42:55;;;;;;;17.58;12.95;;;;;;;;;;4983644;28;20042;-55
2023/05/22 05:45:24;;;;;;;14.02;12.15;;;;;;;;;;4993843;28;20053;-62
2023/05/22 05:47:50;;;;;;;11.15;9.85;;;;;;;;;;4995275;28;20314;-61
2023/05/22 05:50:16;;;;;;;11.30;10.05;;;;;;;;;;4969233;28;20069;-61
2023/05/22 05:52:42;;;;;;;15.25;11.45;;;;;;;;;;4984190;28;20168;-62
2023/05/22 05:55:12;;;;;;;13.27;11.30;;;;;;;;;;4985120;28;20535;-62
2023/05/22 05:57:38;;;;;;;13.68;12.00;;;;;;;;;;4983691;28;20030;-62
2023/05/22 06:00:09;;;;;;;11.52;10.38;;;;;;;;;;4978579;28;20098;-60
2023/05/22 06:02:40;;;;;;;10.55;9.45;;;;;;;;;;4982810;28;20049;-61
2023/05/22 06:05:17;;;;;;;14.75;10.45;;;;;;;;;;4984105;28;20057;-62
2023/05/22 06:07:47;;;;;;;11.48;10.27;;;;;;;;;;4995225;28;20422;-61
2023/05/22 06:10:12;;;;;;;12.95;11.43;;;;;;;;;;4976280;28;20113;-61
2023/05/22 06:13:01;;;;;;;12.15;10.95;;;;;;;;;;4984782;28;20038;-61
2023/05/22 06:15:26;;;;;;;13.63;11.15;;;;;;;;;;4970995;28;20088;-61
2023/05/22 06:17:52;;;;;;;11.80;10.60;;;;;;;;;;4979485;28;20038;-63
2023/05/22 06:20:18;;;;;;;11.05;9.90;;;;;;;;;;4969185;28;20035;-62
2023/05/22 06:22:44;;;;;;;13.73;11.15;;;;;;;;;;4982848;28;20553;-61
2023/05/22 06:25:09;;;;;;;11.82;9.68;;;;;;;;;;4983598;28;20042;-61
2023/05/22 06:27:35;;;;;;;11.52;10.32;;;;;;;;;;4979468;28;20046;-62
2023/05/22 06:30:01;;;;;;;12.07;10.75;;;;;;;;;;4986008;28;20119;-62
2023/05/22 06:32:33;;;;;;;13.43;11.10;;;;;;;;;;4984706;28;20495;-62
2023/05/22 06:35:00;;;;;;;12.10;10.88;;;;;;;;;;4983240;28;20062;-61
2023/05/22 06:37:26;;;;;;;12.70;10.85;;;;;;;;;;4979983;28;20637;-62
2023/05/22 06:39:51;;;;;;;14.77;11.55;;;;;;;;;;4984764;28;20507;-62
2023/05/22 06:42:26;;;;;;;11.80;10.20;;;;;;;;;;4985070;28;20526;-61
2023/05/22 06:45:10;;;;;;;11.45;9.88;;;;;;;;;;4978900;28;20520;-61
2023/05/22 06:47:45;;;;;;;11.57;10.38;;;;;;;;;;4976793;28;20039;-60
2023/05/22 06:50:11;;;;;;;11.25;10.05;;;;;;;;;;4982688;28;20091;-60
2023/05/22 06:52:37;;;;;;;13.40;10.25;;;;;;;;;;4982746;28;20108;-61
2023/05/22 06:55:06;;;;;;;10.98;9.90;;;;;;;;;;4986202;28;20066;-61
2023/05/22 06:57:40;;;;;;;12.38;10.75;;;;;;;;;;4982165;28;20093;-60
2023/05/22 07:00:10;;;;;;;12.88;11.27;;;;;;;;;;4988289;28;20033;-60
2023/05/22 07:03:01;;;;;;;12.68;11.35;;;;;;;;;;4972931;28;20049;-61
2023/05/22 07:05:31;;;;;;;11.48;9.45;;;;;;;;;;5000233;28;20490;-61
2023/05/22 07:08:00;;;;;;;12.50;9.80;;;;;;;;;;4997104;28;20091;-61
2023/05/22 07:10:26;;;;;;;12.70;10.35;;;;;;;;;;4970627;28;20042;-61
2023/05/22 07:12:52;;;;;;;11.75;10.32;;;;;;;;;;4998252;28;20053;-60
2023/05/22 07:15:17;;;;;;;11.32;10.25;;;;;;;;;;4984329;28;20034;-61
2023/05/22 07:17:48;;;;;;;12.30;10.85;;;;;;;;;;4980557;28;20101;-60
2023/05/22 07:20:14;;;;;;;12.57;10.32;;;;;;;;;;4985286;28;20061;-61
2023/05/22 07:22:45;;;;;;;12.27;10.77;;;;;;;;;;4968175;28;20397;-61
2023/05/22 07:25:11;;;;;;;10.85;9.68;;;;;;;;;;4980913;28;20120;-60
2023/05/22 07:27:37;;;;;;;12.38;9.60;;;;;;;;;;4979847;28;20035;-62
2023/05/22 07:30:03;;;;;;;14.07;9.88;;;;;;;;;;4981637;28;20120;-60
2023/05/22 07:32:30;;;;;;;10.52;9.45;;;;;;;;;;4972085;28;20053;-60
2023/05/22 07:34:57;;;;;;;12.18;10.57;;;;;;;;;;4979112;28;20026;-62
2023/05/22 07:37:23;;;;;;;16.73;11.75;;;;;;;;;;4980678;28;20778;-61
2023/05/22 07:39:48;;;;;;;14.73;10.50;;;;;;;;;;4994316;28;20045;-61
2023/05/22 07:42:14;;;;;;;13.00;10.57;;;;;;;;;;4981312;28;20506;-61
2023/05/22 07:44:46;;;;;;;11.73;10.48;;;;;;;;;;4999018;28;20491;-61
2023/05/22 07:47:12;;;;;;;11.10;9.98;;;;;;;;;;4980054;28;20126;-59
2023/05/22 07:49:38;;;;;;;11.40;10.02;;;;;;;;;;4982292;28;20117;-59
2023/05/22 07:52:03;;;;;;;11.40;9.88;;;;;;;;;;4968350;28;20560;-60
2023/05/22 07:54:29;;;;;;;10.05;9.05;;;;;;;;;;4981818;28;20482;-59
2023/05/22 07:56:54;;;;;;;11.93;9.15;;;;;;;;;;4972806;28;20453;-59
2023/05/22 07:59:22;;;;;;;10.20;9.20;;;;;;;;;;4980175;28;20042;-60
2023/05/22 08:01:49;;;;;;;9.10;8.30;;;;;;;;;;4984430;28;20429;-61
2023/05/22 08:04:14;;;;;;;9.30;8.40;;;;;;;;;;4983912;28;20343;-60
2023/05/22 08:06:42;;;;;;;9.10;8.20;;;;;;;;;;4980277;28;20413;-60
2023/05/22 08:09:08;;;;;;;10.48;8.85;;;;;;;;;;4980313;28;20044;-60
2023/05/22 08:11:34;;;;;;;10.98;9.88;;;;;;;;;;4981846;28;20042;-60
2023/05/22 08:14:00;;;;;;;10.52;9.52;;;;;;;;;;4980754;28;20545;-59
2023/05/22 08:16:26;;;;;;;15.38;9.82;;;;;;;;;;4982969;28;20043;-59
2023/05/22 08:18:51;;;;;;;11.05;9.68;;;;;;;;;;4980798;28;20059;-62
2023/05/22 08:21:17;;;;;;;12.18;9.35;;;;;;;;;;4979658;28;20049;-60
2023/05/22 08:23:43;;;;;;;10.57;9.55;;;;;;;;;;4981258;28;20046;-59
2023/05/22 08:26:11;;;;;;;11.90;10.82;;;;;;;;;;4959280;28;20041;-60
2023/05/22 08:28:40;;;;;;;10.82;9.80;;;;;;;;;;4983537;28;20069;-60
2023/05/22 08:31:06;;;;;;;10.15;8.80;;;;;;;;;;4982059;28;20054;-59
2023/05/22 08:33:31;;;;;;;10.43;9.27;;;;;;;;;;4982914;28;20049;-60
2023/05/22 08:35:57;;;;;;;10.88;8.90;;;;;;;;;;4981763;28;20038;-60
2023/05/22 08:38:22;;;;;;;11.75;9.43;;;;;;;;;;4979536;28;20057;-59
2023/05/22 08:40:49;;;;;;;11.90;9.98;;;;;;;;;;4980206;28;20043;-61
2023/05/22 08:43:14;;;;;;;10.63;9.48;;;;;;;;;;4978514;28;20067;-61
2023/05/22 08:45:42;;;;;;;10.55;9.55;;;;;;;;;;4977940;28;20044;-62
2023/05/22 08:48:11;;;;;;;10.65;9.65;;;;;;;;;;4979823;28;20046;-64
2023/05/22 08:50:39;;;;;;;10.82;8.93;;;;;;;;;;4979896;28;20034;-62
2023/05/22 08:53:06;;;;;;;11.38;10.38;;;;;;;;;;4982283;28;20252;-62
2023/05/22 08:55:32;;;;;;;11.73;10.15;;;;;;;;;;4977674;28;20379;-62
2023/05/22 08:57:58;;;;;;;13.60;9.98;;;;;;;;;;4981306;28;20134;-62
2023/05/22 09:00:23;;;;;;;14.57;10.07;;;;;;;;;;4979496;28;20043;-61
2023/05/22 09:02:49;;;;;;;10.63;9.63;;;;;;;;;;4979365;28;20042;-62
2023/05/22 09:05:15;;;;;;;13.00;10.90;;;;;;;;;;4982549;28;20033;-62
2023/05/22 09:07:41;;;;;;;10.38;9.18;;;;;;;;;;4980705;28;20039;-63
2023/05/22 09:10:07;;;;;;;12.63;11.30;;;;;;;;;;4979332;28;20037;-62
2023/05/22 09:12:32;;;;;;;11.60;10.50;;;;;;;;;;4980804;28;20421;-62
2023/05/22 09:15:09;;;;;;;11.85;10.68;;;;;;;;;;4979666;28;20047;-62
2023/05/22 09:17:37;;;;;;;10.40;9.48;;;;;;;;;;4981486;28;20499;-61
2023/05/22 09:20:03;;;;;;;15.93;9.95;;;;;;;;;;4981108;28;20054;-63
2023/05/22 09:22:39;;;;;;;11.10;9.52;;;;;;;;;;4982454;28;20117;-61
2023/05/22 09:25:05;;;;;;;11.18;10.18;;;;;;;;;;4994520;28;20089;-61
2023/05/22 09:27:31;;;;;;;11.48;10.50;;;;;;;;;;4971962;28;20196;-61
2023/05/22 09:29:57;;;;;;;12.38;11.18;;;;;;;;;;4981098;28;20045;-60
2023/05/22 09:32:23;;;;;;;12.27;11.15;;;;;;;;;;4979595;28;20034;-60
2023/05/22 09:34:48;;;;;;;11.02;9.85;;;;;;;;;;4978481;28;20565;-60
2023/05/22 09:37:15;;;;;;;12.50;10.68;;;;;;;;;;4975199;28;20065;-61
2023/05/22 09:39:44;;;;;;;11.70;10.50;;;;;;;;;;4978314;28;20477;-61
2023/05/22 09:42:11;;;;;;;13.52;11.02;;;;;;;;;;4979460;28;20045;-61
2023/05/22 09:44:37;;;;;;;12.68;10.77;;;;;;;;;;4979665;28;20038;-62
2023/05/22 09:47:05;;;;;;;11.43;10.30;;;;;;;;;;4980263;28;20177;-62
2023/05/22 09:49:40;;;;;;;9.85;8.80;;;;;;;;;;4978498;28;20038;-61
2023/05/22 09:52:07;;;;;;;10.30;9.35;;;;;;;;;;4982007;28;20042;-60
2023/05/22 09:54:33;;;;;;;10.20;9.27;;;;;;;;;;4980349;28;20528;-60
2023/05/22 09:56:59;;;;;;;9.70;8.88;;;;;;;;;;4980871;28;20043;-61
2023/05/22 09:59:28;;;;;;;9.57;8.75;;;;;;;;;;4980171;28;20148;-60
2023/05/22 10:01:54;;;;;;;10.00;8.70;;;;;;;;;;4968018;28;20038;-61
2023/05/22 10:04:21;;;;;;;8.98;7.97;;;;;;;;;;4977483;28;20054;-61
2023/05/22 10:06:51;;;;;;;9.45;8.52;;;;;;;;;;4978451;28;20026;-60
2023/05/22 10:09:17;;;;;;;8.85;7.95;;;;;;;;;;4979625;28;20036;-61
2023/05/22 10:11:43;;;;;;;8.90;8.10;;;;;;;;;;4980487;28;20042;-60
2023/05/22 10:14:09;;;;;;;7.63;7.00;;;;;;;;;;4979879;28;20482;-60
2023/05/22 10:16:38;;;;;;;8.35;7.60;;;;;;;;;;4980380;28;20042;-62
2023/05/22 10:19:05;;;;;;;7.30;6.60;;;;;;;;;;4977428;28;20145;-62
2023/05/22 10:21:31;;;;;;;8.10;7.32;;;;;;;;;;4977965;28;20046;-61
2023/05/22 10:23:58;;;;;;;8.07;7.47;;;;;;;;;;4977691;28;20561;-63
2023/05/22 10:26:23;;;;;;;6.93;6.43;;;;;;;;;;4986104;28;20511;-63
2023/05/22 10:28:56;;;;;;;7.30;6.60;;;;;;;;;;4981450;28;20125;-63
2023/05/22 10:31:22;;;;;;;7.85;7.03;;;;;;;;;;4982963;28;20045;-63
2023/05/22 10:34:07;;;;;;;9.87;8.97;;;;;;;;;;4982052;28;20046;-63
2023/05/22 10:36:35;;;;;;;7.82;7.15;;;;;;;;;;4982505;28;20519;-63
2023/05/22 10:39:12;;;;;;;7.63;6.78;;;;;;;;;;4982308;28;20540;-63
2023/05/22 10:41:38;;;;;;;7.85;7.13;;;;;;;;;;4983189;28;20038;-62
2023/05/22 10:44:04;;;;;;;8.82;7.50;;;;;;;;;;4986209;28;20041;-63
2023/05/22 10:46:31;;;;;;;8.57;6.57;;;;;;;;;;4982899;28;20045;-63
2023/05/22 10:48:56;;;;;;;7.15;6.53;;;;;;;;;;4984195;28;20545;-63
2023/05/22 10:51:22;;;;;;;7.22;6.53;;;;;;;;;;4981832;28;20051;-62
2023/05/22 10:53:54;;;;;;;7.47;6.88;;;;;;;;;;4982124;28;20080;-62
2023/05/22 10:56:20;;;;;;;7.53;6.72;;;;;;;;;;4983359;28;20035;-62
2023/05/22 10:58:55;;;;;;;8.07;7.28;;;;;;;;;;4984645;28;20057;-62
2023/05/22 11:01:23;;;;;;;7.85;7.35;;;;;;;;;;4981633;28;20077;-63
2023/05/22 11:03:53;;;;;;;8.90;7.25;;;;;;;;;;4997679;28;20048;-62
2023/05/22 11:06:28;;;;;;;7.07;6.30;;;;;;;;;;4984847;28;20035;-63
2023/05/22 11:08:54;;;;;;;7.20;6.50;;;;;;;;;;4982322;28;20038;-63
2023/05/22 11:11:23;;;;;;;8.15;7.45;;;;;;;;;;4969810;28;20092;-62
2023/05/22 11:13:52;;;;;;;7.57;6.93;;;;;;;;;;4984380;28;20034;-62
2023/05/22 11:16:18;;;;;;;9.10;7.22;;;;;;;;;;4987048;28;20042;-61
2023/05/22 11:18:44;;;;;;;8.70;6.82;;;;;;;;;;4985193;28;20060;-61
2023/05/22 11:21:11;;;;;;;6.78;6.32;;;;;;;;;;4980668;28;20070;-61
2023/05/22 11:23:36;;;;;;;8.07;7.38;;;;;;;;;;4980340;28;20048;-61
2023/05/22 11:26:19;;;;;;;9.13;7.18;;;;;;;;;;4980780;28;20025;-62
2023/05/22 11:28:48;;;;;;;7.60;6.90;;;;;;;;;;4996708;28;20038;-60
2023/05/22 11:31:13;;;;;;;7.30;6.57;;;;;;;;;;4980984;28;20125;-61
2023/05/22 11:33:39;;;;;;;7.63;7.03;;;;;;;;;;4976824;28;20698;-61
2023/05/22 11:36:05;;;;;;;7.50;6.88;;;;;;;;;;4981616;28;20154;-61
2023/05/22 11:38:30;;;;;;;7.93;7.20;;;;;;;;;;4980477;28;20041;-61
2023/05/22 11:40:56;;;;;;;7.13;6.55;;;;;;;;;;4980713;28;20053;-61
2023/05/22 11:43:29;;;;;;;7.88;7.18;;;;;;;;;;4980104;28;20014;-61
2023/05/22 11:45:59;;;;;;;8.35;7.55;;;;;;;;;;4980921;28;20056;-61
2023/05/22 11:48:24;;;;;;;8.20;7.60;;;;;;;;;;4980488;28;20609;-61
2023/05/22 11:50:50;;;;;;;7.32;6.63;;;;;;;;;;4981621;28;20044;-61
2023/05/22 11:53:15;;;;;;;7.55;6.72;;;;;;;;;;4981481;28;20034;-62
2023/05/22 11:55:41;;;;;;;8.25;7.28;;;;;;;;;;4980288;28;20685;-62
2023/05/22 11:58:06;;;;;;;9.80;7.28;;;;;;;;;;4979508;28;20053;-62
2023/05/22 12:00:32;;;;;;;8.80;7.78;;;;;;;;;;4981878;28;20038;-62
2023/05/22 12:02:57;;;;;;;8.25;7.45;;;;;;;;;;4982324;28;20038;-62
2023/05/22 12:05:23;;;;;;;8.05;7.35;;;;;;;;;;4982837;28;20030;-62
2023/05/22 12:07:48;;;;;;;8.32;7.53;;;;;;;;;;4978351;28;20026;-62
2023/05/22 12:10:14;;;;;;;7.88;7.28;;;;;;;;;;4980225;28;20042;-62
2023/05/22 12:12:40;;;;;;;7.70;7.10;;;;;;;;;;4981882;28;20037;-62
2023/05/22 12:15:05;;;;;;;8.23;7.40;;;;;;;;;;4980667;28;20046;-62
2023/05/22 12:17:34;;;;;;;8.30;7.60;;;;;;;;;;4981923;28;20034;-61
2023/05/22 12:19:59;;;;;;;12.57;7.93;;;;;;;;;;4980400;28;20397;-61
2023/05/22 12:22:28;;;;;;;7.97;7.38;;;;;;;;;;4981912;28;20093;-64
2023/05/22 12:24:54;;;;;;;8.15;7.53;;;;;;;;;;4981184;28;20029;-64
2023/05/22 12:27:19;;;;;;;8.77;7.97;;;;;;;;;;4979545;28;20027;-64
2023/05/22 12:29:45;;;;;;;7.72;7.22;;;;;;;;;;4982834;28;20034;-62
2023/05/22 12:32:11;;;;;;;8.85;7.63;;;;;;;;;;4980525;28;20615;-62
2023/05/22 12:34:46;;;;;;;8.02;7.30;;;;;;;;;;4982526;28;20049;-63
2023/05/22 12:37:21;;;;;;;7.85;7.10;;;;;;;;;;4972496;28;20030;-64
2023/05/22 12:39:59;;;;;;;7.90;7.10;;;;;;;;;;4979653;28;20129;-68
2023/05/22 12:42:25;;;;;;;8.02;7.20;;;;;;;;;;4986627;28;20038;-59
2023/05/22 12:44:55;;;;;;;8.40;7.47;;;;;;;;;;4985369;28;20129;-60
2023/05/22 12:47:22;;;;;;;8.02;7.22;;;;;;;;;;4979566;28;20069;-60
2023/05/22 12:49:47;;;;;;;9.05;8.15;;;;;;;;;;4983010;28;20046;-59
2023/05/22 12:52:13;;;;;;;8.43;7.57;;;;;;;;;;4979619;28;20666;-59
2023/05/22 12:54:38;;;;;;;8.52;7.70;;;;;;;;;;4980345;28;20034;-60
2023/05/22 12:57:04;;;;;;;8.95;8.25;;;;;;;;;;4980019;28;20046;-60
2023/05/22 12:59:32;;;;;;;8.85;8.15;;;;;;;;;;4985293;28;20635;-60
2023/05/22 13:02:00;;;;;;;7.43;6.93;;;;;;;;;;4984728;28;20046;-60
2023/05/22 13:04:29;;;;;;;10.27;7.57;;;;;;;;;;4977778;28;20046;-60
2023/05/22 13:06:54;;;;;;;9.13;8.05;;;;;;;;;;4980399;28;20089;-60
2023/05/22 13:09:20;;;;;;;8.68;7.95;;;;;;;;;;4981064;28;20064;-60
2023/05/22 13:11:46;;;;;;;9.40;7.78;;;;;;;;;;4978531;28;20061;-60
2023/05/22 13:14:12;;;;;;;8.55;7.70;;;;;;;;;;4977401;28;20078;-60
2023/05/22 13:16:38;;;;;;;8.95;8.20;;;;;;;;;;4979223;28;20107;-61
2023/05/22 13:19:03;;;;;;;8.65;7.05;;;;;;;;;;4980598;28;20057;-61
2023/05/22 13:21:30;;;;;;;9.57;7.68;;;;;;;;;;4978645;28;20312;-64
2023/05/22 13:23:55;;;;;;;8.65;7.65;;;;;;;;;;4982698;28;20042;-59
2023/05/22 13:26:21;;;;;;;7.68;6.65;;;;;;;;;;4979630;28;20508;-66
2023/05/22 13:28:47;;;;;;;7.53;6.50;;;;;;;;;;4981199;28;20482;-61
2023/05/22 13:31:12;;;;;;;6.78;6.10;;;;;;;;;;4977565;28;20308;-59
2023/05/22 13:33:37;;;;;;;7.15;5.93;;;;;;;;;;4980252;28;20517;-61
2023/05/22 13:36:03;;;;;;;6.30;5.78;;;;;;;;;;4978321;28;20030;-61
2023/05/22 13:38:28;;;;;;;6.18;5.35;;;;;;;;;;4978425;28;20570;-60
2023/05/22 13:40:54;;;;;;;5.78;5.25;;;;;;;;;;4977094;28;20209;-60
2023/05/22 13:43:20;;;;;;;5.47;4.97;;;;;;;;;;4979609;28;20038;-60
2023/05/22 13:45:45;;;;;;;5.20;4.80;;;;;;;;;;4980116;28;20538;-59
2023/05/22 13:48:10;;;;;;;5.82;5.22;;;;;;;;;;4976880;28;20068;-58
2023/05/22 13:50:36;;;;;;;5.80;5.25;;;;;;;;;;4977756;28;20436;-59
2023/05/22 13:53:01;;;;;;;5.32;4.18;;;;;;;;;;4977715;28;20490;-59
2023/05/22 13:55:27;;;;;;;4.72;4.18;;;;;;;;;;4978714;28;20118;-59
2023/05/22 13:57:52;;;;;;;4.30;3.90;;;;;;;;;;4961562;28;20038;-59
2023/05/22 14:00:18;;;;;;;5.45;4.00;;;;;;;;;;4979441;28;20684;-59
2023/05/22 14:02:44;;;;;;;4.07;3.75;;;;;;;;;;4979825;28;20038;-59
2023/05/22 14:05:09;;;;;;;5.85;3.92;;;;;;;;;;4981775;28;20068;-59
2023/05/22 14:07:35;;;;;;;5.90;5.40;;;;;;;;;;4982599;28;20504;-57
2023/05/22 14:10:01;;;;;;;6.20;5.68;;;;;;;;;;4982004;28;20521;-58
2023/05/22 14:12:26;;;;;;;9.25;7.05;;;;;;;;;;4984571;28;20493;-59
2023/05/22 14:14:52;;;;;;;13.68;7.30;;;;;;;;;;4981894;28;20038;-60
2023/05/22 14:17:17;;;;;;;10.63;6.97;;;;;;;;;;4983319;28;20046;-60
2023/05/22 14:19:43;;;;;;;9.57;6.53;;;;;;;;;;4984542;28;20492;-60
2023/05/22 14:22:08;;;;;;;8.57;6.85;;;;;;;;;;4985951;28;20384;-58
2023/05/22 14:24:33;;;;;;;7.18;6.18;;;;;;;;;;4980376;28;20039;-57
2023/05/22 14:26:59;;;;;;;7.15;5.72;;;;;;;;;;4982432;28;20040;-61